createdAt,value
2024-05-09T00:00:36.231Z,29.13
2024-05-09T00:03:11.039Z,27.20
2024-05-09T00:05:42.341Z,26.30
2024-05-09T00:08:10.424Z,25.85
2024-05-09T00:10:39.173Z,25.45
2024-05-09T00:13:07.550Z,27.20
2024-05-09T00:15:35.056Z,30.60
2024-05-09T00:18:02.640Z,30.92
2024-05-09T00:20:37.383Z,26.00
2024-05-09T00:23:07.953Z,29.95
2024-05-09T00:25:35.498Z,25.08
2024-05-09T00:28:03.057Z,28.67
2024-05-09T00:30:34.526Z,26.38
2024-05-09T00:33:05.340Z,25.38
2024-05-09T00:35:33.063Z,27.80
2024-05-09T00:38:00.158Z,26.63
2024-05-09T00:40:37.287Z,31.90
2024-05-09T00:43:06.956Z,27.90
2024-05-09T00:45:34.676Z,26.85
2024-05-09T00:48:02.987Z,30.15
2024-05-09T00:50:35.984Z,27.77
2024-05-09T00:53:06.082Z,28.88
2024-05-09T00:55:35.184Z,28.60
2024-05-09T00:58:02.643Z,25.98
2024-05-09T01:00:37.811Z,25.67
2024-05-09T01:03:07.501Z,26.30
2024-05-09T01:05:35.404Z,23.75
2024-05-09T01:08:03.058Z,27.58
2024-05-09T01:10:34.502Z,25.25
2024-05-09T01:13:03.472Z,29.05
2024-05-09T01:15:30.075Z,28.13
2024-05-09T01:17:57.682Z,28.27
2024-05-09T01:20:36.424Z,28.38
2024-05-09T01:23:09.573Z,29.00
2024-05-09T01:25:36.836Z,27.02
2024-05-09T01:28:03.906Z,25.55
2024-05-09T01:30:34.995Z,29.13
2024-05-09T01:33:05.382Z,28.08
2024-05-09T01:35:33.298Z,25.48
2024-05-09T01:37:59.975Z,25.92
2024-05-09T01:40:36.265Z,26.63
2024-05-09T01:43:05.797Z,28.15
2024-05-09T01:45:32.397Z,24.85
2024-05-09T01:47:59.547Z,25.52
2024-05-09T01:50:37.218Z,26.58
2024-05-09T01:53:08.364Z,27.25
2024-05-09T01:55:35.112Z,24.95
2024-05-09T01:58:01.688Z,28.27
2024-05-09T02:00:37.122Z,26.30
2024-05-09T02:03:14.901Z,24.38
2024-05-09T02:05:45.227Z,26.38
2024-05-09T02:08:22.228Z,27.45
2024-05-09T02:10:50.373Z,28.23
2024-05-09T02:13:17.414Z,28.40
2024-05-09T02:15:44.265Z,29.88
2024-05-09T02:18:11.563Z,27.85
2024-05-09T02:20:40.608Z,27.02
2024-05-09T02:23:08.943Z,28.75
2024-05-09T02:25:35.801Z,25.75
2024-05-09T02:28:02.375Z,28.80
2024-05-09T02:30:38.267Z,27.42
2024-05-09T02:33:09.514Z,26.58
2024-05-09T02:35:37.599Z,26.60
2024-05-09T02:38:04.524Z,27.08
2024-05-09T02:40:37.495Z,28.08
2024-05-09T02:43:12.700Z,25.63
2024-05-09T02:45:40.436Z,26.10
2024-05-09T02:48:10.062Z,29.75
2024-05-09T02:50:39.520Z,25.52
2024-05-09T02:53:07.822Z,27.52
2024-05-09T02:55:35.000Z,25.55
2024-05-09T02:58:01.674Z,29.15
2024-05-09T03:00:36.774Z,24.95
2024-05-09T03:03:12.501Z,29.52
2024-05-09T03:05:41.616Z,30.17
2024-05-09T03:08:08.535Z,27.17
2024-05-09T03:10:37.518Z,27.35
2024-05-09T03:13:09.877Z,28.55
2024-05-09T03:15:36.776Z,29.13
2024-05-09T03:18:04.698Z,30.85
2024-05-09T03:20:34.892Z,24.65
2024-05-09T03:23:03.382Z,23.83
2024-05-09T03:25:30.272Z,28.35
2024-05-09T03:27:56.889Z,25.77
2024-05-09T03:30:38.137Z,32.10
2024-05-09T03:33:16.786Z,30.45
2024-05-09T03:35:44.213Z,33.67
2024-05-09T03:38:10.914Z,27.45
2024-05-09T03:40:47.810Z,30.50
2024-05-09T03:43:15.473Z,28.13
2024-05-09T03:45:42.830Z,31.15
2024-05-09T03:48:10.556Z,28.83
2024-05-09T03:50:37.782Z,31.98
2024-05-09T03:53:05.165Z,29.58
2024-05-09T03:55:32.100Z,29.58
2024-05-09T03:57:59.125Z,28.95
2024-05-09T04:00:34.244Z,28.90
2024-05-09T04:03:07.280Z,29.23
2024-05-09T04:05:36.730Z,31.90
2024-05-09T04:08:03.463Z,27.05
2024-05-09T04:10:33.640Z,28.23
2024-05-09T04:13:02.667Z,26.25
2024-05-09T04:15:29.801Z,27.05
2024-05-09T04:17:56.758Z,27.10
2024-05-09T04:20:33.484Z,33.35
2024-05-09T04:23:11.806Z,25.67
2024-05-09T04:25:41.821Z,24.52
2024-05-09T04:28:08.453Z,27.40
2024-05-09T04:30:39.189Z,24.48
2024-05-09T04:33:10.685Z,25.88
2024-05-09T04:35:39.347Z,34.60
2024-05-09T04:38:06.552Z,25.73
2024-05-09T04:40:36.186Z,23.98
2024-05-09T04:43:13.353Z,25.63
2024-05-09T04:45:39.934Z,26.63
2024-05-09T04:48:07.282Z,29.00
2024-05-09T04:50:37.779Z,28.17
2024-05-09T04:53:08.484Z,23.70
2024-05-09T04:55:36.558Z,29.67
2024-05-09T04:58:03.471Z,22.15
2024-05-09T05:00:35.977Z,23.33
2024-05-09T05:03:10.610Z,25.95
2024-05-09T05:05:43.640Z,20.13
2024-05-09T05:08:16.264Z,18.17
2024-05-09T05:10:44.219Z,18.80
2024-05-09T05:13:20.879Z,23.40
2024-05-09T05:15:50.034Z,22.85
2024-05-09T05:18:17.951Z,19.92
2024-05-09T05:20:45.146Z,19.63
2024-05-09T05:23:13.718Z,20.05
2024-05-09T05:25:44.074Z,20.75
2024-05-09T05:28:11.215Z,22.95
2024-05-09T05:30:38.642Z,21.80
2024-05-09T05:33:07.222Z,21.42
2024-05-09T05:35:35.990Z,20.45
2024-05-09T05:38:09.404Z,23.40
2024-05-09T05:40:40.547Z,23.48
2024-05-09T05:43:10.286Z,29.88
2024-05-09T05:45:37.481Z,26.23
2024-05-09T05:48:06.136Z,28.73
2024-05-09T05:50:36.556Z,25.50
2024-05-09T05:53:09.582Z,26.35
2024-05-09T05:55:39.207Z,23.90
2024-05-09T05:58:09.470Z,25.27
2024-05-09T06:00:39.118Z,22.67
2024-05-09T06:03:12.498Z,26.65
2024-05-09T06:05:40.549Z,19.50
2024-05-09T06:08:07.853Z,20.75
2024-05-09T06:10:38.622Z,19.98
2024-05-09T06:13:08.847Z,18.95
2024-05-09T06:15:35.401Z,18.48
2024-05-09T06:18:05.672Z,18.00
2024-05-09T06:20:36.461Z,18.58
2024-05-09T06:23:08.991Z,19.42
2024-05-09T06:25:36.268Z,17.90
2024-05-09T06:28:03.562Z,21.25
2024-05-09T06:30:38.007Z,21.38
2024-05-09T06:33:08.847Z,18.38
2024-05-09T06:35:36.363Z,31.90
2024-05-09T06:38:03.306Z,20.27
2024-05-09T06:40:37.175Z,21.60
2024-05-09T06:43:13.615Z,18.73
2024-05-09T06:45:40.499Z,20.73
2024-05-09T06:48:08.621Z,18.25
2024-05-09T06:50:38.091Z,21.90
2024-05-09T06:53:06.740Z,18.65
2024-05-09T06:55:33.446Z,20.38
2024-05-09T06:58:00.048Z,17.17
2024-05-09T07:00:34.818Z,18.85
2024-05-09T07:03:16.055Z,18.45
2024-05-09T07:05:45.798Z,16.83
2024-05-09T07:08:13.231Z,18.25
2024-05-09T07:10:40.150Z,19.60
2024-05-09T07:13:14.952Z,18.15
2024-05-09T07:15:42.269Z,18.80
2024-05-09T07:18:13.899Z,17.17
2024-05-09T07:20:41.335Z,19.00
2024-05-09T07:23:12.596Z,16.05
2024-05-09T07:25:40.702Z,16.92
2024-05-09T07:28:12.070Z,21.63
2024-05-09T07:30:38.688Z,17.60
2024-05-09T07:33:05.831Z,16.20
2024-05-09T07:35:32.824Z,18.08
2024-05-09T07:37:59.739Z,18.75
2024-05-09T07:40:33.251Z,15.65
2024-05-09T07:43:14.098Z,17.00
2024-05-09T07:45:50.541Z,18.17
2024-05-09T07:53:39.030Z,16.80
2024-05-09T07:56:09.735Z,15.88
2024-05-09T07:58:37.333Z,17.52
2024-05-09T08:01:04.338Z,16.73
2024-05-09T08:03:31.618Z,16.58
2024-05-09T08:05:58.195Z,18.63
2024-05-09T08:08:24.911Z,19.35
2024-05-09T08:10:51.665Z,18.83
2024-05-09T08:13:18.499Z,16.80
2024-05-09T08:15:45.249Z,17.65
2024-05-09T08:18:12.218Z,16.75
2024-05-09T08:20:40.060Z,14.68
2024-05-09T08:23:07.089Z,17.27
2024-05-09T08:25:33.823Z,14.98
2024-05-09T08:28:00.674Z,16.92
2024-05-09T08:30:33.628Z,18.58
2024-05-09T08:33:04.619Z,14.88
2024-05-09T08:35:32.034Z,13.70
2024-05-09T08:37:59.057Z,16.00
2024-05-09T08:40:33.324Z,13.88
2024-05-09T08:43:03.050Z,14.80
2024-05-09T08:45:31.189Z,14.70
2024-05-09T08:48:00.211Z,14.15
2024-05-09T08:50:35.436Z,14.40
2024-05-09T08:53:05.558Z,14.02
2024-05-09T08:55:32.451Z,15.35
2024-05-09T08:58:01.898Z,16.58
2024-05-09T09:00:36.519Z,14.57
2024-05-09T09:03:09.023Z,15.38
2024-05-09T09:05:39.325Z,14.75
2024-05-09T09:08:08.396Z,13.43
2024-05-09T09:10:35.761Z,14.88
2024-05-09T09:13:04.921Z,13.57
2024-05-09T09:15:32.642Z,13.10
2024-05-09T09:18:01.056Z,14.20
2024-05-09T09:20:35.839Z,13.90
2024-05-09T09:23:04.417Z,16.17
2024-05-09T09:25:31.427Z,11.80
2024-05-09T09:27:58.632Z,12.05
2024-05-09T09:30:35.145Z,14.68
2024-05-09T09:33:08.662Z,13.48
2024-05-09T09:35:38.589Z,14.50
2024-05-09T09:38:07.131Z,13.50
2024-05-09T09:40:39.078Z,11.68
2024-05-09T09:43:22.397Z,12.52
2024-05-09T09:45:55.113Z,13.35
2024-05-09T09:48:22.844Z,10.88
2024-05-09T09:50:51.495Z,13.60
2024-05-09T09:53:18.810Z,13.68
2024-05-09T09:55:46.335Z,14.05
2024-05-09T09:58:16.294Z,13.63
2024-05-09T10:00:43.315Z,13.40
2024-05-09T10:03:10.214Z,13.20
2024-05-09T10:05:37.537Z,12.50
2024-05-09T10:08:07.251Z,11.57
2024-05-09T10:10:35.412Z,13.65
2024-05-09T10:13:08.946Z,15.65
2024-05-09T10:15:46.541Z,11.52
2024-05-09T10:18:14.356Z,16.83
2024-05-09T10:20:45.166Z,12.10
2024-05-09T10:23:28.568Z,13.98
2024-05-09T10:26:00.085Z,12.20
2024-05-09T10:28:31.728Z,13.20
2024-05-09T10:31:13.318Z,12.73
2024-05-09T10:33:51.861Z,15.70
2024-05-09T10:36:19.295Z,12.55
2024-05-09T10:38:46.063Z,12.80
2024-05-09T10:41:13.032Z,13.82
2024-05-09T10:43:41.031Z,18.17
2024-05-09T10:46:10.503Z,13.98
2024-05-09T10:48:38.313Z,14.65
2024-05-09T10:51:05.563Z,13.27
2024-05-09T10:53:32.271Z,13.55
2024-05-09T10:56:01.914Z,12.55
2024-05-09T10:58:28.759Z,13.25
2024-05-09T11:00:58.075Z,14.25
2024-05-09T11:03:25.780Z,14.82
2024-05-09T11:05:53.411Z,15.23
2024-05-09T11:08:22.113Z,13.82
2024-05-09T11:10:53.647Z,15.45
2024-05-09T11:13:30.114Z,14.25
2024-05-09T11:15:56.929Z,16.17
2024-05-09T11:18:26.464Z,14.98
2024-05-09T11:20:56.153Z,14.00
2024-05-09T11:23:26.284Z,14.18
2024-05-09T11:25:54.925Z,15.40
2024-05-09T11:28:22.573Z,14.35
2024-05-09T11:30:50.521Z,12.82
2024-05-09T11:33:19.748Z,14.93
2024-05-09T11:35:47.235Z,13.20
2024-05-09T11:38:14.022Z,13.57
2024-05-09T11:40:40.888Z,17.00
2024-05-09T11:43:07.768Z,15.05
2024-05-09T11:45:34.489Z,13.32
2024-05-09T11:48:01.441Z,14.02
2024-05-09T11:50:33.015Z,15.00
2024-05-09T11:53:02.428Z,15.35
2024-05-09T11:55:29.331Z,12.25
2024-05-09T11:57:56.902Z,12.05
2024-05-09T12:00:29.785Z,15.35
2024-05-09T12:03:05.313Z,13.48
2024-05-09T12:05:33.075Z,14.68
2024-05-09T12:08:00.752Z,14.23
2024-05-09T12:10:33.196Z,14.88
2024-05-09T12:13:02.654Z,15.98
2024-05-09T12:15:30.070Z,15.90
2024-05-09T12:17:59.077Z,16.33
2024-05-09T12:20:35.674Z,16.65
2024-05-09T12:23:05.485Z,14.98
2024-05-09T12:25:32.235Z,15.93
2024-05-09T12:27:58.980Z,17.33
2024-05-09T12:30:35.163Z,17.30
2024-05-09T12:33:06.168Z,16.15
2024-05-09T12:35:33.184Z,15.93
2024-05-09T12:37:59.999Z,16.00
2024-05-09T12:40:34.696Z,17.63
2024-05-09T12:43:04.990Z,15.32
2024-05-09T12:45:32.180Z,18.70
2024-05-09T12:47:59.462Z,16.83
2024-05-09T12:50:32.286Z,17.25
2024-05-09T12:53:01.843Z,16.45
2024-05-09T12:55:33.510Z,16.67
2024-05-09T12:58:06.735Z,16.25
2024-05-09T13:00:34.501Z,17.20
2024-05-09T13:03:01.648Z,16.10
2024-05-09T13:05:28.824Z,15.95
2024-05-09T13:07:56.924Z,19.77
2024-05-09T13:10:31.185Z,21.67
2024-05-09T13:13:00.923Z,19.73
2024-05-09T13:15:28.367Z,17.02
2024-05-09T13:17:58.103Z,17.38
2024-05-09T13:20:32.406Z,20.80
2024-05-09T13:23:02.648Z,19.98
2024-05-09T13:25:29.381Z,18.90
2024-05-09T13:27:56.876Z,18.55
2024-05-09T13:30:29.889Z,18.42
2024-05-09T13:33:06.071Z,18.05
2024-05-09T13:35:35.485Z,21.23
2024-05-09T13:38:03.228Z,17.83
2024-05-09T13:40:34.292Z,22.77
2024-05-09T13:43:05.792Z,17.88
2024-05-09T13:45:33.277Z,17.13
2024-05-09T13:48:00.636Z,20.13
2024-05-09T13:50:33.647Z,23.98
2024-05-09T13:53:03.598Z,18.27
2024-05-09T13:55:30.328Z,18.55
2024-05-09T13:57:57.037Z,18.70
2024-05-09T14:00:37.867Z,19.58
2024-05-09T14:03:10.588Z,21.98
2024-05-09T14:05:37.410Z,18.95
2024-05-09T14:08:04.486Z,21.50
2024-05-09T14:10:32.306Z,20.17
2024-05-09T14:13:00.251Z,19.65
2024-05-09T14:15:27.049Z,23.58
2024-05-09T14:17:54.606Z,18.63
2024-05-09T14:22:50.898Z,19.33
2024-05-09T14:25:17.735Z,20.15
2024-05-09T14:27:44.483Z,21.33
2024-05-09T14:30:18.258Z,18.15
2024-05-09T14:32:52.930Z,21.20
2024-05-09T14:35:19.813Z,21.25
2024-05-09T14:37:46.641Z,20.38
2024-05-09T14:40:30.334Z,21.52
2024-05-09T14:43:03.155Z,19.40
2024-05-09T14:45:30.300Z,24.02
2024-05-09T14:47:57.212Z,27.15
2024-05-09T14:50:32.554Z,22.63
2024-05-09T14:53:03.577Z,21.17
2024-05-09T14:55:30.728Z,21.25
2024-05-09T14:57:57.563Z,25.17
2024-05-09T15:00:28.950Z,19.08
2024-05-09T15:03:00.506Z,22.05
2024-05-09T15:05:27.499Z,18.77
2024-05-09T15:07:54.295Z,21.52
2024-05-09T15:10:27.322Z,19.88
2024-05-09T15:13:00.959Z,19.55
2024-05-09T15:15:27.722Z,20.77
2024-05-09T15:17:54.989Z,19.85
2024-05-09T15:20:30.768Z,20.85
2024-05-09T15:23:01.926Z,18.67
2024-05-09T15:25:28.739Z,20.15
2024-05-09T15:27:55.571Z,17.67
2024-05-09T15:30:30.207Z,20.35
2024-05-09T15:32:59.460Z,18.63
2024-05-09T15:35:26.172Z,16.52
2024-05-09T15:37:52.802Z,17.50
2024-05-09T15:40:26.839Z,19.13
2024-05-09T15:43:02.597Z,20.88
2024-05-09T15:45:29.590Z,17.77
2024-05-09T15:47:57.199Z,18.30
2024-05-09T15:50:35.253Z,21.25
2024-05-09T15:53:06.321Z,18.42
2024-05-09T15:55:34.187Z,19.33
2024-05-09T15:58:02.659Z,18.98
2024-05-09T16:00:37.364Z,17.55
2024-05-09T16:03:07.788Z,20.65
2024-05-09T16:05:34.735Z,17.10
2024-05-09T16:08:01.564Z,19.13
2024-05-09T16:10:32.697Z,20.13
2024-05-09T16:13:01.157Z,22.17
2024-05-09T16:15:27.980Z,23.25
2024-05-09T16:17:55.392Z,20.77
2024-05-09T16:20:33.838Z,23.70
2024-05-09T16:23:06.354Z,24.85
2024-05-09T16:25:33.137Z,21.77
2024-05-09T16:28:00.181Z,24.88
2024-05-09T16:30:34.170Z,25.42
2024-05-09T16:33:04.425Z,26.13
2024-05-09T16:35:31.954Z,24.42
2024-05-09T16:37:58.717Z,23.73
2024-05-09T16:40:34.420Z,27.77
2024-05-09T16:43:06.116Z,25.23
2024-05-09T16:45:33.299Z,26.88
2024-05-09T16:48:00.623Z,25.05
2024-05-09T16:50:32.706Z,26.27
2024-05-09T16:53:02.028Z,26.58
2024-05-09T16:55:29.045Z,24.55
2024-05-09T16:57:56.883Z,23.48
2024-05-09T17:00:34.920Z,28.40
2024-05-09T17:03:08.345Z,25.73
2024-05-09T17:05:35.871Z,24.08
2024-05-09T17:08:03.156Z,26.77
2024-05-09T17:10:33.583Z,26.58
2024-05-09T17:13:02.917Z,26.20
2024-05-09T17:15:29.963Z,26.77
2024-05-09T17:17:56.788Z,26.50
2024-05-09T17:20:31.322Z,28.02
2024-05-09T17:23:02.314Z,23.50
2024-05-09T17:25:29.415Z,24.30
2024-05-09T17:27:56.612Z,22.85
2024-05-09T17:30:29.233Z,28.45
2024-05-09T17:33:02.494Z,24.48
2024-05-09T17:35:29.444Z,27.10
2024-05-09T17:37:56.578Z,24.83
2024-05-09T17:40:30.078Z,27.48
2024-05-09T17:43:00.233Z,23.92
2024-05-09T17:45:26.933Z,28.02
2024-05-09T17:47:53.862Z,25.98
2024-05-09T17:50:27.488Z,26.33
2024-05-09T17:53:00.630Z,26.38
2024-05-09T17:55:27.498Z,27.45
2024-05-09T17:57:54.408Z,25.17
2024-05-09T18:00:29.294Z,27.60
2024-05-09T18:03:04.082Z,29.77
2024-05-09T18:05:31.190Z,27.02
2024-05-09T18:07:58.066Z,27.08
2024-05-09T18:10:32.568Z,29.30
2024-05-09T18:13:03.734Z,27.88
2024-05-09T18:15:30.568Z,26.77
2024-05-09T18:17:57.576Z,27.65
2024-05-09T18:20:33.154Z,26.05
2024-05-09T18:23:07.980Z,25.17
2024-05-09T18:25:34.673Z,26.85
2024-05-09T18:28:04.835Z,27.02
2024-05-09T18:30:35.137Z,28.02
2024-05-09T18:33:05.433Z,29.17
2024-05-09T18:35:33.331Z,27.45
2024-05-09T18:38:00.524Z,30.77
2024-05-09T18:40:33.729Z,27.65
2024-05-09T18:43:06.112Z,28.55
2024-05-09T18:45:34.478Z,27.20
2024-05-09T18:48:01.296Z,25.75
2024-05-09T18:50:34.531Z,28.58
2024-05-09T18:53:08.740Z,30.48
2024-05-09T18:55:36.173Z,27.02
2024-05-09T18:58:04.526Z,30.73
2024-05-09T19:00:35.895Z,31.98
2024-05-09T19:03:08.943Z,32.22
2024-05-09T19:05:38.221Z,29.73
2024-05-09T19:08:05.673Z,28.30
2024-05-09T19:10:34.919Z,34.13
2024-05-09T19:13:06.838Z,30.35
2024-05-09T19:15:37.654Z,29.00
2024-05-09T19:18:04.841Z,31.42
2024-05-09T19:20:34.416Z,32.00
2024-05-09T19:23:02.891Z,32.40
2024-05-09T19:25:29.641Z,33.65
2024-05-09T19:27:56.244Z,32.05
2024-05-09T19:30:30.427Z,33.92
2024-05-09T19:33:05.833Z,40.90
2024-05-09T19:35:32.822Z,38.85
2024-05-09T19:37:59.643Z,43.22
2024-05-09T19:40:31.373Z,42.53
2024-05-09T19:43:01.528Z,35.88
2024-05-09T19:45:28.818Z,37.83
2024-05-09T19:47:55.957Z,37.47
2024-05-09T19:50:30.986Z,38.20
2024-05-09T19:53:04.155Z,37.10
2024-05-09T19:55:30.737Z,38.40
2024-05-09T19:57:57.881Z,38.25
2024-05-09T20:00:32.573Z,41.85
2024-05-09T20:03:02.560Z,37.50
2024-05-09T20:05:31.221Z,44.60
2024-05-09T20:07:58.307Z,37.58
2024-05-09T20:10:31.350Z,40.20
2024-05-09T20:13:00.339Z,38.58
2024-05-09T20:15:27.162Z,37.03
2024-05-09T20:17:54.346Z,38.88
2024-05-09T20:20:31.951Z,38.65
2024-05-09T20:23:03.861Z,42.45
2024-05-09T20:25:30.482Z,40.10
2024-05-09T20:27:57.077Z,40.80
2024-05-09T20:30:31.241Z,46.97
2024-05-09T20:33:00.518Z,45.58
2024-05-09T20:35:31.782Z,43.25
2024-05-09T20:37:58.781Z,43.03
2024-05-09T20:40:31.627Z,44.90
2024-05-09T20:43:02.042Z,44.63
2024-05-09T20:45:28.704Z,45.45
2024-05-09T20:47:56.431Z,45.05
2024-05-09T20:50:32.032Z,48.97
2024-05-09T20:53:05.234Z,46.72
2024-05-09T20:55:31.882Z,49.70
2024-05-09T20:57:58.703Z,50.03
2024-05-09T21:00:34.628Z,49.72
2024-05-09T21:03:07.204Z,53.30
2024-05-09T21:05:35.048Z,46.95
2024-05-09T21:08:02.138Z,51.63
2024-05-09T21:10:32.801Z,45.92
2024-05-09T21:13:01.659Z,50.78
2024-05-09T21:15:28.858Z,49.58
2024-05-09T21:17:55.473Z,51.83
2024-05-09T21:20:28.755Z,53.15
2024-05-09T21:22:58.335Z,53.28
2024-05-09T21:25:24.976Z,52.75
2024-05-09T21:27:51.844Z,50.65
2024-05-09T21:30:27.766Z,51.08
2024-05-09T21:33:04.729Z,49.05
2024-05-09T21:35:31.559Z,51.95
2024-05-09T21:37:58.256Z,53.30
2024-05-09T21:40:31.571Z,55.45
2024-05-09T21:43:01.513Z,55.17
2024-05-09T21:45:28.149Z,48.60
2024-05-09T21:47:55.119Z,49.40
2024-05-09T21:50:28.202Z,52.63
2024-05-09T21:53:02.015Z,58.28
2024-05-09T21:55:28.606Z,58.15
2024-05-09T21:57:56.625Z,53.08
2024-05-09T22:00:29.232Z,49.08
2024-05-09T22:03:02.605Z,45.90
2024-05-09T22:05:29.720Z,51.35
2024-05-09T22:07:56.966Z,55.15
2024-05-09T22:10:30.495Z,56.20
2024-05-09T22:13:00.739Z,67.63
2024-05-09T22:15:27.457Z,64.40
2024-05-09T22:17:56.207Z,50.55
2024-05-09T22:20:32.820Z,57.08
2024-05-09T22:23:03.219Z,54.10
2024-05-09T22:25:31.140Z,50.08
2024-05-09T22:27:59.030Z,50.47
2024-05-09T22:30:34.229Z,49.45
2024-05-09T22:33:05.759Z,50.10
2024-05-09T22:35:32.882Z,46.92
2024-05-09T22:37:59.641Z,53.40
2024-05-09T22:40:38.092Z,48.70
2024-05-09T22:43:12.911Z,46.45
2024-05-09T22:45:39.735Z,49.90
2024-05-09T22:48:07.635Z,48.00
2024-05-09T22:50:34.736Z,49.08
2024-05-09T22:53:01.483Z,51.63
2024-05-09T22:55:28.310Z,50.42
2024-05-09T22:57:55.156Z,52.67
2024-05-09T23:00:29.459Z,51.80
2024-05-09T23:03:00.049Z,49.55
2024-05-09T23:05:26.978Z,52.00
2024-05-09T23:07:53.756Z,50.63
2024-05-09T23:10:27.909Z,46.75
2024-05-09T23:13:00.856Z,49.55
2024-05-09T23:15:27.581Z,47.60
2024-05-09T23:17:54.434Z,49.30
2024-05-09T23:20:30.063Z,57.38
2024-05-09T23:23:03.814Z,52.92
2024-05-09T23:25:30.472Z,51.05
2024-05-09T23:27:57.160Z,52.40
2024-05-09T23:30:33.362Z,51.00
2024-05-09T23:33:05.167Z,48.60
2024-05-09T23:35:31.904Z,50.80
2024-05-09T23:37:58.544Z,50.30
2024-05-09T23:40:36.659Z,48.20
2024-05-09T23:43:06.720Z,51.08
2024-05-09T23:45:33.724Z,56.70
2024-05-09T23:48:00.822Z,53.88
2024-05-09T23:50:34.396Z,54.10
2024-05-09T23:53:04.505Z,54.30
2024-05-09T23:55:32.093Z,54.47
2024-05-09T23:57:59.189Z,54.35
